Latest Weather Observations for Hopetoun Airport

IDV60801

Issued at 3:03 pm EDT Tuesday 28 March 2017 (issued every 30 minutes, with the page automatically refreshed every 10 minutes)

About weather observations | Map of weather stations | Latest weather observations for VIC | Other Formats
Station Details ID: 077010 Name: HOPETOUN AIRPORT Lat: -35.72 Lon: 142.36 Height: 77.3 m
Data from the previous 72 hours. | See also: Recent months at Hopetoun Airport
Date/Time
EDT
Temp
°C
App
Temp
°C
Dew
Point
°C
Rel
Hum
%
Delta-T
°C
Wind Press
QNH
hPa
Press
MSL
hPa
Rain since
9am
mm
Dir  Spd
km/h
Gust
km/h
Spd
kts
Gust
kts
28/03:00pm 24.4 20.4 8.4 36 8.6 W 19 22 10 12 - 1013.3 0.0
28/02:30pm 23.4 19.5 8.7 39 7.9 W 19 33 10 18 1013.9 1013.7 0.0
28/02:00pm 23.2 20.2 9.2 41 7.6 W 15 24 8 13 1014.4 1014.2 0.0
28/01:30pm 22.4 19.9 9.6 44 6.9 W 13 22 7 12 1014.7 1014.5 0.0
28/01:00pm 21.9 18.7 10.1 47 6.4 W 17 26 9 14 1015.2 1015.0 0.0
28/12:30pm 21.0 17.4 9.9 49 6.0 WNW 19 28 10 15 1015.7 1015.5 0.0
28/12:00pm 21.1 18.6 10.9 52 5.6 WNW 15 24 8 13 1015.8 1015.6 0.0
28/11:30am 20.1 18.7 10.8 55 5.1 WNW 9 20 5 11 1016.0 1015.8 0.0
28/11:00am 18.8 18.0 11.6 63 4.0 WNW 7 15 4 8 1016.1 1015.9 0.0
28/10:30am 17.9 16.6 11.2 65 3.6 WNW 9 15 5 8 1016.4 1016.1 0.0
28/10:00am 16.3 14.6 11.2 72 2.7 NW 11 13 6 7 1016.5 1016.2 0.0
28/09:30am 14.2 12.7 10.4 78 2.0 NW 9 11 5 6 1016.5 1016.2 0.0
28/09:00am 11.4 10.0 9.5 88 1.0 NW 7 9 4 5 1016.1 1015.9 0.0
28/08:30am 8.7 7.4 7.8 94 0.4 NNW 4 6 2 3 1015.9 1015.7 0.0
28/08:00am 7.2 5.5 6.1 93 0.5 NNW 4 6 2 3 1015.5 1015.3 0.0
28/07:30am 6.4 4.1 5.0 91 0.6 N 6 6 3 3 1015.5 1015.3 0.0
28/07:00am 7.5 5.3 6.4 93 0.5 NNW 7 9 4 5 1015.6 1015.4 0.0
28/06:30am 8.2 6.3 6.8 91 0.7 NNW 6 7 3 4 1015.4 1015.2 0.0
28/06:00am 9.8 8.1 7.7 87 1.0 SSW 6 7 3 4 1015.1 1014.9 0.0
28/05:30am 10.5 8.4 8.3 86 1.1 SSW 9 11 5 6 1014.8 1014.6 0.0
28/05:00am 10.7 8.7 8.6 87 1.0 SSW 9 11 5 6 1014.8 1014.6 0.0
28/04:30am 10.5 8.4 8.1 85 1.2 SW 9 11 5 6 1014.9 1014.7 0.0
28/04:00am 11.3 9.0 9.0 86 1.1 WSW 11 13 6 7 1015.2 1015.0 0.0
28/03:30am 8.6 6.1 6.7 88 0.9 WSW 9 13 5 7 1015.3 1015.1 0.0
28/03:00am 8.2 6.1 5.8 85 1.1 W 6 6 3 3 1015.7 1015.5 0.0
28/02:30am 9.1 7.5 6.4 83 1.3 WSW 4 4 2 2 1015.7 1015.5 0.0
28/02:00am 9.2 7.3 6.5 83 1.3 WSW 6 6 3 3 1015.6 1015.4 0.0
28/01:30am 9.8 8.3 6.7 81 1.5 SW 4 4 2 2 1015.6 1015.4 0.0
28/01:00am 11.0 9.5 6.9 76 2.0 SSW 4 6 2 3 1015.6 1015.4 0.0
28/12:30am 12.2 10.5 7.5 73 2.3 SW 6 7 3 4 1015.5 1015.3 0.0
28/12:00am 12.7 10.8 7.4 70 2.6 SW 7 9 4 5 1015.6 1015.4 0.0
 
Date/Time
EDT
Temp
°C
App
Temp
°C
Dew
Point
°C
Rel
Hum
%
Delta-T
°C
Wind Press
QNH
hPa
Press
MSL
hPa
Rain since
9am
mm
Dir  Spd
km/h
Gust
km/h
Spd
kts
Gust
kts
27/11:30pm 14.1 12.2 7.6 65 3.2 SW 7 9 4 5 1015.5 1015.3 0.0
27/11:00pm 14.3 11.7 7.6 64 3.3 SW 11 13 6 7 1015.5 1015.3 0.0
27/10:30pm 15.6 12.6 7.6 59 4.0 WSW 13 15 7 8 1015.4 1015.2 0.0
27/10:00pm 16.5 13.1 7.7 56 4.4 WSW 15 19 8 10 1015.4 1015.2 0.0
27/09:30pm 18.0 13.8 7.4 50 5.4 SW 19 26 10 14 1015.0 1014.8 0.0
27/09:00pm 18.3 14.5 5.8 44 6.1 SW 15 20 8 11 1014.5 1014.3 0.0
27/08:30pm 18.8 14.5 5.3 41 6.6 SW 17 20 9 11 1014.0 1013.8 0.0
27/08:00pm 20.2 15.1 4.3 35 7.7 WSW 20 28 11 15 1013.5 1013.3 0.0
27/07:30pm 21.3 14.3 4.0 32 8.4 WSW 30 39 16 21 1013.0 1012.8 0.0
27/07:00pm 22.9 17.8 7.8 38 7.9 WSW 24 35 13 19 1012.5 1012.3 0.0
27/06:30pm 23.7 18.3 7.8 36 8.4 SW 26 35 14 19 1012.2 1012.0 0.0
27/06:00pm 23.9 18.2 8.3 37 8.3 WSW 28 43 15 23 1012.0 1011.8 0.0
27/05:30pm 23.9 17.8 8.3 37 8.3 WSW 30 44 16 24 1012.0 1011.8 0.0
27/05:00pm 23.6 17.3 8.8 39 8.0 SW 32 48 17 26 1012.2 1012.0 0.0
27/04:30pm 23.4 16.9 9.0 40 7.8 SW 33 44 18 24 1012.5 1012.3 0.0
27/04:00pm 23.2 17.9 9.9 43 7.3 SW 28 39 15 21 1012.6 1012.4 0.0
27/03:30pm 22.0 17.1 11.4 51 5.9 SW 28 41 15 22 1012.8 1012.6 0.0
27/03:00pm 20.4 14.1 9.0 48 6.0 SW 32 39 17 21 1013.5 1013.3 0.0
27/02:30pm 20.2 12.5 8.8 48 6.0 SW 39 57 21 31 1013.5 1013.3 0.0
27/02:10pm 22.7 16.1 8.4 40 7.6 WSW 33 57 18 31 1012.6 1012.4 0.0
27/02:00pm 21.2 15.8 11.0 52 5.6 WSW 30 41 16 22 1012.7 1012.5 0.0
27/01:31pm 21.9 12.9 10.1 47 6.4 WSW 48 69 26 37 1012.3 1012.1 0.0
27/01:30pm 22.0 12.4 9.5 45 6.7 WSW 50 69 27 37 1012.3 1012.1 0.0
27/01:16pm 25.6 16.8 11.0 40 8.2 WSW 48 67 26 36 1011.8 1011.6 0.0
27/01:00pm 26.0 17.6 11.0 39 8.5 WSW 46 63 25 34 1011.4 1011.2 0.0
27/12:42pm 25.6 17.6 12.4 43 7.6 WSW 46 67 25 36 1011.1 1010.9 0.0
27/12:30pm 25.4 16.3 12.6 45 7.4 WSW 52 65 28 35 1010.9 1010.7 0.0
27/12:16pm 26.4 18.7 13.2 44 7.8 WSW 46 65 25 35 1010.2 1010.0 0.0
27/12:00pm 26.1 18.5 13.6 46 7.4 WSW 46 63 25 34 1010.2 1010.0 0.0
27/11:44am 25.1 18.0 13.9 49 6.6 WSW 44 65 24 35 1009.9 1009.7 0.0
27/11:30am 25.9 19.1 13.1 45 7.5 WSW 41 57 22 31 1009.3 1009.0 0.0
27/11:00am 27.0 21.1 13.7 44 7.9 WSW 37 50 20 27 1008.7 1008.4 0.0
27/10:30am 27.3 21.2 15.3 48 7.3 WSW 41 54 22 29 1008.2 1007.9 0.0
27/10:21am 29.0 22.7 12.4 36 9.7 WNW 37 50 20 27 1007.7 1007.4 0.0
27/10:00am 28.9 23.1 12.8 37 9.5 NW 35 48 19 26 1007.4 1007.1 0.0
27/09:30am 28.9 23.3 13.2 38 9.3 NW 35 46 19 25 1007.2 1006.9 0.0
27/09:23am 28.8 23.5 13.1 38 9.3 NNW 33 46 18 25 1006.9 1006.6 0.0
27/09:00am 27.5 22.9 13.4 41 8.4 N 30 35 16 19 1005.9 1005.6 0.0
27/08:30am 26.3 22.2 13.8 46 7.4 N 28 43 15 23 1005.4 1005.1 0.0
27/08:00am 25.4 20.8 13.6 48 7.0 N 30 39 16 21 1005.2 1004.9 0.0
27/07:30am 25.3 20.8 13.8 49 6.8 NNE 30 44 16 24 1005.0 1004.7 0.0
27/07:00am 25.7 21.6 13.9 48 7.0 NNE 28 39 15 21 1005.2 1004.9 0.0
27/06:30am 25.9 22.1 13.7 47 7.2 NNE 26 35 14 19 1005.5 1005.2 0.0
27/06:00am 26.0 22.6 13.8 47 7.2 NNE 24 37 13 20 1005.8 1005.5 0.0
27/05:30am 25.9 23.0 14.1 48 7.0 NNE 22 33 12 18 1006.0 1005.7 0.0
27/05:00am 25.7 23.2 14.2 49 6.9 NNE 20 30 11 16 1006.3 1006.0 0.0
27/04:30am 25.6 23.1 14.1 49 6.8 NNE 20 28 11 15 1006.6 1006.3 0.0
27/04:00am 25.0 23.0 13.9 50 6.6 NNE 17 24 9 13 1007.1 1006.8 0.0
27/03:30am 24.9 22.4 13.5 49 6.7 NNE 19 24 10 13 1007.4 1007.1 0.0
27/03:00am 24.8 22.5 13.0 47 6.9 NE 17 20 9 11 1007.7 1007.4 0.0
27/02:30am 25.4 22.7 12.9 45 7.3 NE 19 26 10 14 1008.1 1007.8 0.0
27/02:00am 25.2 22.8 12.8 46 7.2 NE 17 24 9 13 1008.4 1008.1 0.0
27/01:30am 25.2 22.8 12.8 46 7.2 NE 17 22 9 12 1008.8 1008.5 0.0
27/01:00am 25.1 23.2 13.0 47 7.1 NE 15 20 8 11 1009.3 1009.0 0.0
27/12:30am 25.4 23.6 13.3 47 7.1 NE 15 19 8 10 1009.7 1009.5 0.0
27/12:00am 25.3 23.5 13.2 47 7.1 NE 15 19 8 10 1010.3 1010.1 0.0
 
Date/Time
EDT
Temp
°C
App
Temp
°C
Dew
Point
°C
Rel
Hum
%
Delta-T
°C
Wind Press
QNH
hPa
Press
MSL
hPa
Rain since
9am
mm
Dir  Spd
km/h
Gust
km/h
Spd
kts
Gust
kts
26/11:30pm 24.4 23.0 13.3 50 6.5 NE 13 15 7 8 1010.7 1010.5 0.0
26/11:00pm 23.8 23.0 12.8 50 6.4 NE 9 13 5 7 1011.0 1010.8 0.0
26/10:30pm 24.7 23.6 13.0 48 6.8 NE 11 13 6 7 1011.1 1010.9 0.0
26/10:00pm 24.1 23.4 13.3 51 6.3 NE 9 11 5 6 1011.4 1011.2 0.0
26/09:30pm 24.1 23.7 13.0 50 6.4 NE 7 11 4 6 1011.5 1011.3 0.0
26/09:00pm 24.8 24.0 13.0 47 6.9 NE 9 9 5 5 1011.5 1011.3 0.0
26/08:30pm 25.3 25.0 13.2 47 7.1 NE 7 9 4 5 1011.2 1011.0 0.0
26/08:00pm 26.2 25.9 13.3 45 7.6 ENE 7 9 4 5 1011.2 1011.0 0.0
26/07:30pm 27.1 26.4 13.1 42 8.2 ENE 9 11 5 6 1011.1 1010.9 0.0
26/07:00pm 27.9 27.5 13.1 40 8.7 SE 7 7 4 4 1011.3 1011.1 0.0
26/06:30pm 28.5 27.7 12.8 38 9.2 ESE 9 13 5 7 1011.1 1010.9 0.0
26/06:00pm 29.0 28.6 12.4 36 9.7 SE 6 7 3 4 1011.4 1011.2 0.0
26/05:30pm 28.9 28.6 12.8 37 9.5 SE 6 9 3 5 1011.4 1011.2 0.0
26/05:00pm 29.7 29.3 13.0 35 9.9 SSW 7 15 4 8 1011.7 1011.5 0.0
26/04:30pm 29.5 29.1 12.9 36 9.8 S 7 13 4 7 1011.6 1011.4 0.0
26/04:00pm 29.7 30.1 12.6 35 10.1 NE 2 6 1 3 1011.8 1011.6 0.0
26/03:30pm 29.5 29.5 12.4 35 10.1 WSW 4 9 2 5 1011.9 1011.7 0.0
26/03:00pm 28.9 27.9 12.3 36 9.7 W 9 13 5 7 1012.1 1011.9 0.0
26/02:30pm 28.4 27.7 11.9 36 9.6 NW 7 11 4 6 1012.5 1012.3 0.0
26/02:00pm 28.6 28.4 13.7 40 8.9 NW 7 11 4 6 1013.1 1012.9 0.0
26/01:30pm 27.5 28.2 13.4 41 8.4 WNW 2 4 1 2 1013.1 1012.9 0.0
26/01:00pm 27.1 27.6 14.1 44 7.8 S 4 6 2 3 1013.3 1013.1 0.0
26/12:30pm 26.0 26.6 15.4 52 6.4 SSE 6 9 3 5 1013.6 1013.4 0.0
26/12:00pm 24.8 25.9 16.5 60 5.1 S 6 9 3 5 1014.2 1014.0 0.0
26/11:30am 23.7 25.1 16.5 64 4.4 SSE 4 6 2 3 1014.4 1014.2 0.0
26/11:00am 22.5 23.5 16.3 68 3.8 SSE 6 7 3 4 1014.7 1014.5 0.0
26/10:30am 20.6 21.5 16.0 75 2.8 SSE 6 7 3 4 1014.8 1014.6 0.0
26/10:00am 19.5 20.3 15.8 79 2.2 SSE 6 7 3 4 1014.7 1014.5 0.0
26/09:30am 18.8 20.0 15.9 83 1.7 SSE 4 6 2 3 1014.6 1014.4 0.0
26/09:00am 17.4 17.5 15.4 88 1.2 S 9 11 5 6 1014.2 1014.0 0.0
26/08:30am 15.1 15.6 14.1 94 0.6 SW 4 4 2 2 1014.4 1014.2 0.0
26/08:00am 14.8 16.0 13.8 94 0.6 CALM 0 2 0 1 1014.1 1013.9 0.0
26/07:30am 15.3 15.9 14.2 93 0.6 S 4 6 2 3 1013.5 1013.3 0.0
26/07:00am 16.2 16.1 14.9 92 0.8 S 9 11 5 6 1013.0 1012.8 0.0
26/06:30am 16.4 16.7 15.1 92 0.8 S 7 9 4 5 1012.9 1012.7 0.0
26/06:00am 16.7 17.3 15.2 91 0.9 S 6 9 3 5 1012.6 1012.4 0.0
26/05:30am 16.6 17.2 15.3 92 0.8 S 6 7 3 4 1012.6 1012.4 0.0
26/05:00am 16.6 17.5 15.0 90 0.9 SSW 4 6 2 3 1012.5 1012.3 0.0
26/04:30am 17.5 17.6 15.5 88 1.2 S 9 11 5 6 1012.6 1012.4 0.0
26/04:00am 17.9 18.5 15.9 88 1.2 SSW 7 9 4 5 1012.7 1012.5 0.0
26/03:30am 18.2 18.4 15.8 86 1.4 SSW 9 13 5 7 1012.9 1012.7 0.0
26/03:00am 18.9 18.8 16.0 83 1.7 SSW 11 13 6 7 1012.9 1012.7 0.0
26/02:30am 19.6 19.9 16.1 80 2.1 SSW 9 15 5 8 1013.0 1012.8 0.0
26/02:00am 20.1 19.6 15.9 77 2.5 SSW 13 17 7 9 1013.2 1013.0 0.0
26/01:30am 20.6 20.1 16.0 75 2.8 SSW 13 19 7 10 1013.1 1012.9 0.0
26/01:00am 21.2 20.7 16.0 72 3.1 SW 13 19 7 10 1013.5 1013.3 0.0
26/12:30am 21.9 21.4 16.0 69 3.6 SSW 13 19 7 10 1013.5 1013.3 0.0
26/12:00am 22.7 21.5 16.0 66 4.1 SW 17 20 9 11 1013.6 1013.4 0.0
 
Date/Time
EDT
Temp
°C
App
Temp
°C
Dew
Point
°C
Rel
Hum
%
Delta-T
°C
Wind Press
QNH
hPa
Press
MSL
hPa
Rain since
9am
mm
Dir  Spd
km/h
Gust
km/h
Spd
kts
Gust
kts
25/11:30pm 23.2 22.3 15.8 63 4.5 SSW 15 19 8 10 1013.7 1013.5 0.0
25/11:00pm 23.8 22.9 14.8 57 5.4 SW 13 17 7 9 1013.7 1013.5 0.0
25/10:30pm 24.2 22.7 14.3 54 5.9 SW 15 17 8 9 1013.4 1013.2 0.0
25/10:00pm 25.0 23.5 14.2 51 6.4 SW 15 19 8 10 1013.0 1012.8 0.0
25/09:30pm 24.9 24.1 14.1 51 6.4 WSW 11 15 6 8 1012.8 1012.6 0.0
25/09:00pm 26.4 24.8 13.9 46 7.4 WSW 15 17 8 9 1012.2 1012.0 0.0
25/08:30pm 27.0 25.7 13.7 44 7.9 SW 13 17 7 9 1011.9 1011.7 0.0
25/08:00pm 28.1 26.4 13.6 41 8.6 SW 15 20 8 11 1011.7 1011.5 0.0
25/07:30pm 29.0 27.0 12.8 36 9.6 WSW 15 20 8 11 1011.1 1010.9 0.0
25/07:00pm 30.1 27.2 13.0 35 10.2 WSW 20 26 11 14 1011.0 1010.8 0.0
25/06:30pm 31.0 27.2 12.4 32 11.0 WSW 24 35 13 19 1010.9 1010.7 0.0
25/06:00pm 31.4 27.5 12.2 30 11.4 WSW 24 33 13 18 1010.8 1010.6 0.0
25/05:30pm 32.4 29.4 12.6 30 11.8 W 20 32 11 17 1010.5 1010.3 0.0
25/05:00pm 32.3 28.9 12.5 30 11.8 W 22 30 12 16 1010.5 1010.3 0.0
25/04:30pm 31.9 29.3 13.2 32 11.2 W 19 28 10 15 1010.4 1010.2 0.0
25/04:00pm 33.4 29.9 13.5 30 12.1 W 24 32 13 17 1010.7 1010.5 0.0
25/03:30pm 32.0 28.2 12.3 30 11.7 WSW 24 33 13 18 1010.7 1010.5 0.0

Other Formats:

Comma delimited format used in spreadsheet applications
http://www.bom.gov.au/fwo/IDV60801/IDV60801.94838.axf

JavaScript Object Notation format (JSON) in row-major order
http://www.bom.gov.au/fwo/IDV60801/IDV60801.94838.json